Time;durP1;ratioP1;P1;durP2;ratioP2;P2;SDS_P1;SDS_P2;PMS_P1;PMS_P2;Temp;Humidity;BMP_temperature;BMP_pressure;BME280_temperature;BME280_humidity;BME280_pressure;Samples;Min_cycle;Max_cycle;Signal;HPM_P1;HPM_P2
2022/11/01 05:30:42;;;;;;;7.95;1.70;;;12.70;76.70;;;;;;5856326;23;20504;-75
2022/11/01 05:33:09;;;;;;;14.23;2.10;;;12.70;76.90;;;;;;4995061;28;20061;-75
2022/11/01 05:35:35;;;;;;;6.57;1.30;;;12.70;77.00;;;;;;4995769;28;20038;-75
2022/11/01 05:38:02;;;;;;;7.35;1.98;;;12.70;77.20;;;;;;4995199;28;20026;-75
2022/11/01 05:40:28;;;;;;;4.57;1.25;;;12.70;77.10;;;;;;4995518;28;20170;-75
2022/11/01 05:42:54;;;;;;;13.77;2.22;;;12.70;77.20;;;;;;4977549;28;20502;-75
2022/11/01 05:45:29;;;;;;;9.15;1.52;;;12.70;77.10;;;;;;4978337;28;20385;-75
2022/11/01 05:48:00;;;;;;;7.68;1.98;;;12.70;77.20;;;;;;4995795;28;20441;-75
2022/11/01 05:50:25;;;;;;;6.57;1.13;;;12.60;77.30;;;;;;4994980;28;20081;-75
2022/11/01 05:52:51;;;;;;;6.88;1.50;;;12.60;77.30;;;;;;4995749;28;20473;-75
2022/11/01 05:55:17;;;;;;;8.35;1.63;;;12.60;77.60;;;;;;4995529;28;20018;-75
2022/11/01 05:57:42;;;;;;;8.85;1.55;;;12.60;77.50;;;;;;4978091;28;20042;-76
2022/11/01 06:00:09;;;;;;;8.82;1.48;;;12.60;77.60;;;;;;4975932;28;20031;-76
2022/11/01 06:02:37;;;;;;;5.55;1.45;;;12.60;77.70;;;;;;4987076;28;20022;-75
2022/11/01 06:05:03;;;;;;;10.70;1.75;;;12.50;78.10;;;;;;4994126;28;20038;-75
2022/11/01 06:07:29;;;;;;;8.25;2.33;;;12.50;78.00;;;;;;5008323;28;20022;-75
2022/11/01 06:09:55;;;;;;;9.70;1.42;;;12.50;78.10;;;;;;5015215;28;20487;-75
2022/11/01 06:12:23;;;;;;;7.40;1.55;;;12.50;78.30;;;;;;4991760;28;20033;-75
2022/11/01 06:14:49;;;;;;;3.25;1.05;;;12.50;78.40;;;;;;4976558;28;20030;-74
2022/11/01 06:17:14;;;;;;;8.23;2.22;;;12.50;78.50;;;;;;4976320;28;20035;-75
2022/11/01 06:19:40;;;;;;;20.38;1.73;;;12.50;78.70;;;;;;4960620;28;20038;-75
2022/11/01 06:22:05;;;;;;;10.75;1.30;;;12.50;78.80;;;;;;4989479;28;20114;-75
2022/11/01 06:24:31;;;;;;;9.77;2.38;;;12.50;79.00;;;;;;4995574;28;20058;-75
2022/11/01 06:26:57;;;;;;;9.40;1.73;;;12.50;79.00;;;;;;4977616;28;20398;-75
2022/11/01 06:29:22;;;;;;;11.48;1.80;;;12.50;79.00;;;;;;4995613;28;20022;-75
2022/11/01 06:31:48;;;;;;;5.68;1.58;;;12.40;79.20;;;;;;4974395;28;20057;-75
2022/11/01 06:34:14;;;;;;;11.07;1.73;;;12.40;79.50;;;;;;4976214;28;20030;-75
2022/11/01 06:36:44;;;;;;;9.20;1.73;;;12.40;79.40;;;;;;4984072;28;20025;-75
2022/11/01 06:39:10;;;;;;;;;;;12.40;79.50;;;;;;4979955;28;20050;-75
2022/11/01 06:41:36;;;;;;;10.13;2.20;;;12.50;79.50;;;;;;4987724;28;19964;-75
2022/11/01 06:44:01;;;;;;;7.18;1.45;;;12.50;79.50;;;;;;4981838;28;20038;-75
2022/11/01 06:46:27;;;;;;;4.45;2.25;;;12.50;79.60;;;;;;4981496;28;20027;-75
2022/11/01 06:48:53;;;;;;;9.73;1.98;;;12.50;79.60;;;;;;4998379;28;20493;-75
2022/11/01 06:51:18;;;;;;;7.65;1.52;;;12.50;79.70;;;;;;4998856;28;20018;-75
2022/11/01 06:53:46;;;;;;;10.57;2.15;;;12.40;79.90;;;;;;4998895;28;20037;-75
2022/11/01 06:56:12;;;;;;;9.70;1.83;;;12.50;79.90;;;;;;4980635;28;20109;-75
2022/11/01 06:58:37;;;;;;;12.13;1.65;;;12.50;79.80;;;;;;4998618;28;20065;-74
2022/11/01 07:01:03;;;;;;;11.63;2.08;;;12.50;79.80;;;;;;4998811;28;20026;-75
2022/11/01 07:03:29;;;;;;;7.00;1.70;;;12.50;80.00;;;;;;4993070;28;20144;-75
2022/11/01 07:05:58;;;;;;;14.10;1.45;;;12.40;80.20;;;;;;4979213;28;20027;-75
2022/11/01 07:08:23;;;;;;;9.10;1.90;;;12.40;80.30;;;;;;4985000;28;20037;-77
2022/11/01 07:10:49;;;;;;;4.50;1.10;;;12.50;80.10;;;;;;4988725;28;20607;-77
2022/11/01 07:13:15;;;;;;;5.80;1.35;;;12.50;79.90;;;;;;4991757;28;20495;-78
2022/11/01 07:15:41;;;;;;;9.50;1.85;;;12.60;80.00;;;;;;4974039;28;20023;-76
2022/11/01 07:18:07;;;;;;;10.23;1.45;;;12.60;79.90;;;;;;4969601;28;20404;-76
2022/11/01 07:20:40;;;;;;;9.38;1.60;;;12.60;79.90;;;;;;4988957;28;20045;-76
2022/11/01 07:23:10;;;;;;;9.20;1.60;;;12.60;80.00;;;;;;4970417;28;20046;-78
2022/11/01 07:25:35;;;;;;;8.35;1.85;;;12.70;80.00;;;;;;4976487;28;20161;-78
2022/11/01 07:28:01;;;;;;;11.57;1.58;;;12.70;79.90;;;;;;4980278;28;20057;-77
2022/11/01 07:30:27;;;;;;;5.47;1.27;;;12.70;79.80;;;;;;4997993;28;20069;-77
2022/11/01 07:33:03;;;;;;;5.00;1.20;;;12.80;79.90;;;;;;4997694;28;20035;-80
2022/11/01 07:35:29;;;;;;;12.10;2.30;;;12.80;79.80;;;;;;4997880;28;20015;-78
2022/11/01 07:37:59;;;;;;;9.35;1.55;;;12.80;79.80;;;;;;4996871;28;20088;-80
2022/11/01 07:40:28;;;;;;;17.38;2.15;;;12.80;79.90;;;;;;4980400;28;20044;-79
2022/11/01 07:42:59;;;;;;;5.60;1.90;;;12.80;79.80;;;;;;4979839;28;20495;-85
2022/11/01 07:45:26;;;;;;;4.75;1.38;;;12.90;79.70;;;;;;4970519;28;20316;-79
2022/11/01 07:47:52;;;;;;;6.78;1.70;;;12.90;79.60;;;;;;4984134;28;20031;-78
2022/11/01 07:50:19;;;;;;;9.95;1.75;;;12.90;79.60;;;;;;4983490;28;20051;-80
2022/11/01 07:52:45;;;;;;;7.00;2.00;;;13.00;79.80;;;;;;4986339;28;20493;-78
2022/11/01 07:55:10;;;;;;;5.18;1.90;;;13.00;79.60;;;;;;4995331;28;20037;-79
2022/11/01 07:57:40;;;;;;;11.20;2.92;;;13.00;79.60;;;;;;4981506;28;20026;-79
2022/11/01 08:00:08;;;;;;;11.20;1.67;;;13.10;79.60;;;;;;4970308;28;20039;-79
2022/11/01 08:02:34;;;;;;;9.85;1.92;;;13.10;79.60;;;;;;4972858;28;20026;-78
2022/11/01 08:05:01;;;;;;;7.55;1.40;;;13.20;79.70;;;;;;4989208;28;20061;-79
2022/11/01 08:07:27;;;;;;;9.60;1.77;;;13.10;79.60;;;;;;4991104;28;20030;-79
2022/11/01 08:09:52;;;;;;;6.13;1.50;;;13.20;79.80;;;;;;4979178;28;20031;-79
2022/11/01 08:12:18;;;;;;;9.05;1.92;;;13.20;79.80;;;;;;4978195;28;20018;-79
2022/11/01 08:14:44;;;;;;;4.63;1.17;;;13.30;79.80;;;;;;4968973;28;20026;-78
2022/11/01 08:17:09;;;;;;;10.60;1.75;;;13.30;79.80;;;;;;4988080;28;20081;-78
2022/11/01 08:19:35;;;;;;;9.68;1.77;;;13.30;79.80;;;;;;4978327;28;20045;-79
2022/11/01 08:22:00;;;;;;;11.52;1.80;;;13.40;79.80;;;;;;4976682;28;20371;-78
2022/11/01 08:24:26;;;;;;;7.25;1.63;;;13.50;79.70;;;;;;4977713;28;20102;-78
2022/11/01 08:26:53;;;;;;;7.68;1.40;;;13.60;79.80;;;;;;4977503;28;20027;-79
2022/11/01 08:29:19;;;;;;;6.57;1.60;;;13.60;79.70;;;;;;4983143;28;20152;-78
2022/11/01 08:31:46;;;;;;;6.70;1.40;;;13.60;79.60;;;;;;4992258;28;20085;-79
2022/11/01 08:34:12;;;;;;;9.40;2.03;;;13.70;79.70;;;;;;4974842;28;20036;-79
2022/11/01 08:36:37;;;;;;;12.43;2.28;;;13.70;79.70;;;;;;4991452;28;20106;-79
2022/11/01 08:39:03;;;;;;;9.27;2.55;;;13.80;79.60;;;;;;4984716;28;20042;-78
2022/11/01 08:41:28;;;;;;;6.10;1.40;;;13.80;79.70;;;;;;4990437;28;20489;-78
2022/11/01 08:43:56;;;;;;;7.90;1.80;;;13.90;79.60;;;;;;4992419;28;20093;-79
2022/11/01 08:46:22;;;;;;;9.15;1.95;;;13.90;79.80;;;;;;4987517;28;20038;-82
2022/11/01 08:48:51;;;;;;;7.05;1.63;;;14.00;79.70;;;;;;4964744;28;20041;-78
2022/11/01 08:51:23;;;;;;;6.90;1.60;;;14.00;79.80;;;;;;4967411;28;20409;-80
2022/11/01 08:53:49;;;;;;;8.80;1.60;;;14.10;79.60;;;;;;4973790;28;20127;-79
2022/11/01 08:56:15;;;;;;;5.47;2.08;;;14.20;79.70;;;;;;4992383;28;20031;-79
2022/11/01 08:58:40;;;;;;;5.97;2.45;;;14.30;79.60;;;;;;4972458;28;20030;-79
2022/11/01 09:01:06;;;;;;;4.72;1.33;;;14.30;79.50;;;;;;4988236;28;20030;-80
2022/11/01 09:03:32;;;;;;;8.50;1.67;;;14.50;79.40;;;;;;4991627;28;20026;-79
2022/11/01 09:05:58;;;;;;;10.95;2.13;;;14.60;79.20;;;;;;4976428;28;20022;-79
2022/11/01 09:08:23;;;;;;;12.32;1.83;;;14.70;79.10;;;;;;4975465;28;20034;-79
2022/11/01 09:10:49;;;;;;;6.03;1.17;;;14.80;78.80;;;;;;4983813;28;20019;-79
2022/11/01 09:13:15;;;;;;;10.20;1.80;;;14.90;78.90;;;;;;4971776;28;20025;-79
2022/11/01 09:15:40;;;;;;;13.55;1.98;;;14.90;78.70;;;;;;4969192;28;20038;-79
2022/11/01 09:18:06;;;;;;;8.57;1.70;;;14.90;78.60;;;;;;4986184;28;20482;-79
2022/11/01 09:20:35;;;;;;;8.63;1.58;;;15.00;78.70;;;;;;4973925;28;20034;-79
2022/11/01 09:23:00;;;;;;;4.00;1.45;;;15.00;78.60;;;;;;4974327;28;20025;-78
2022/11/01 09:25:26;;;;;;;10.07;2.00;;;15.10;78.60;;;;;;4986006;28;20117;-79
2022/11/01 09:27:55;;;;;;;8.60;2.03;;;15.30;78.60;;;;;;4987139;28;20101;-79
2022/11/01 09:30:21;;;;;;;10.35;1.80;;;15.50;78.10;;;;;;4988309;28;20027;-80
2022/11/01 09:32:46;;;;;;;12.07;2.20;;;15.60;77.50;;;;;;4987831;28;20480;-80
2022/11/01 09:35:16;;;;;;;13.55;2.03;;;15.70;77.20;;;;;;4986096;28;20026;-80
2022/11/01 09:37:41;;;;;;;6.70;1.58;;;15.60;77.30;;;;;;4973453;28;20034;-79
2022/11/01 09:40:11;;;;;;;8.90;1.42;;;15.70;77.30;;;;;;4984867;28;20101;-80
2022/11/01 09:42:41;;;;;;;7.85;1.88;;;15.70;77.20;;;;;;4984404;28;20029;-79
2022/11/01 09:45:30;;;;;;;7.78;1.70;;;15.60;77.30;;;;;;4988744;28;20093;-79
2022/11/01 09:47:57;;;;;;;9.00;1.70;;;15.60;77.30;;;;;;4989091;28;20038;-80
2022/11/01 09:50:39;;;;;;;14.70;1.98;;;15.60;77.50;;;;;;4970501;28;20102;-79
2022/11/01 09:53:17;;;;;;;6.80;1.30;;;15.70;77.40;;;;;;4990428;28;20058;-78
2022/11/01 09:56:13;;;;;;;9.57;1.90;;;15.90;77.00;;;;;;4972080;28;20022;-79
2022/11/01 09:59:01;;;;;;;8.50;1.92;;;16.00;76.90;;;;;;4978570;28;20062;-79
2022/11/01 10:01:45;;;;;;;7.20;1.63;;;16.20;76.50;;;;;;4969435;28;20034;-79
2022/11/01 10:04:11;;;;;;;8.88;2.20;;;16.30;76.30;;;;;;4988658;28;20117;-79
2022/11/01 10:06:45;;;;;;;8.70;2.03;;;16.40;75.80;;;;;;4983729;28;20031;-79
2022/11/01 10:09:34;;;;;;;6.70;1.80;;;16.30;75.40;;;;;;4988348;28;20026;-80
2022/11/01 10:12:14;;;;;;;11.50;1.52;;;16.40;75.50;;;;;;4974624;28;20022;-79
2022/11/01 10:14:59;;;;;;;8.25;2.00;;;16.40;75.30;;;;;;4991439;28;20105;-81
2022/11/01 10:17:40;;;;;;;6.93;1.98;;;16.60;75.30;;;;;;4990824;28;20564;-80
2022/11/01 10:20:11;;;;;;;9.88;1.75;;;16.70;74.90;;;;;;4972128;28;20046;-80
2022/11/01 10:22:38;;;;;;;8.20;1.33;;;16.70;74.90;;;;;;4973069;28;20046;-80
2022/11/01 10:25:08;;;;;;;14.10;1.98;;;16.70;74.70;;;;;;4971823;28;20118;-80
2022/11/01 10:27:46;;;;;;;3.75;1.27;;;16.70;74.10;;;;;;4972950;28;20027;-80
2022/11/01 10:30:14;;;;;;;4.75;1.58;;;16.60;73.90;;;;;;4975327;28;20026;-80
2022/11/01 10:33:20;;;;;;;7.35;1.27;;;16.50;73.80;;;;;;4972357;28;20583;-80
2022/11/01 10:35:51;;;;;;;4.93;1.38;;;16.40;74.20;;;;;;4971076;28;20038;-79
2022/11/01 10:38:38;;;;;;;7.00;1.42;;;16.40;74.00;;;;;;4961799;28;20041;-79
2022/11/01 10:41:25;;;;;;;11.55;2.15;;;16.40;73.90;;;;;;4976529;28;20567;-80
2022/11/01 10:43:59;;;;;;;6.70;1.50;;;16.40;73.80;;;;;;4985842;28;20610;-80
2022/11/01 10:46:37;;;;;;;5.55;1.73;;;16.40;73.30;;;;;;4970541;28;20121;-80
2022/11/01 10:49:06;;;;;;;12.70;2.00;;;16.40;73.80;;;;;;4986765;28;20138;-80
2022/11/01 10:51:34;;;;;;;11.32;1.67;;;16.50;73.70;;;;;;4990816;28;20026;-81
2022/11/01 10:54:09;;;;;;;14.05;2.30;;;16.50;73.40;;;;;;4989782;28;20023;-80
2022/11/01 10:56:43;;;;;;;9.90;1.27;;;16.60;73.20;;;;;;4970342;28;20042;-79
2022/11/01 10:59:35;;;;;;;8.30;2.45;;;16.60;73.60;;;;;;4975538;28;20034;-80
2022/11/01 11:02:21;;;;;;;12.60;2.00;;;16.80;73.10;;;;;;4988715;28;20033;-81
2022/11/01 11:04:48;;;;;;;7.72;1.55;;;16.80;73.00;;;;;;4965939;28;20110;-81
2022/11/01 11:07:15;;;;;;;11.13;1.92;;;17.00;73.10;;;;;;4965908;28;20489;-80
2022/11/01 11:09:42;;;;;;;13.45;1.83;;;16.90;72.70;;;;;;4969059;28;20023;-82
2022/11/01 11:12:20;;;;;;;8.05;1.50;;;17.10;72.00;;;;;;4974576;28;20019;-82
2022/11/01 11:14:52;;;;;;;13.40;1.55;;;17.20;72.00;;;;;;4955335;28;20077;-81
2022/11/01 11:17:42;;;;;;;8.98;1.52;;;17.20;72.50;;;;;;4990087;28;20033;-83
2022/11/01 11:20:11;;;;;;;;;;;17.20;71.80;;;;;;4997103;28;20030;-83
2022/11/01 11:22:40;;;;;;;7.93;1.43;;;17.20;71.90;;;;;;4989564;28;20350;-81
2022/11/01 11:25:16;;;;;;;9.63;1.80;;;17.20;70.70;;;;;;4989997;28;20288;-82
2022/11/01 11:27:48;;;;;;;12.70;2.13;;;17.20;71.70;;;;;;4975293;28;20034;-82
2022/11/01 11:30:29;;;;;;;3.55;0.98;;;17.30;71.50;;;;;;4974227;28;20032;-83
2022/11/01 11:32:57;;;;;;;9.90;2.33;;;17.30;71.00;;;;;;4973303;28;20521;-83
2022/11/01 11:35:25;;;;;;;12.98;1.85;;;17.20;71.20;;;;;;4993366;28;20053;-83
2022/11/01 11:38:01;;;;;;;11.40;1.55;;;17.30;71.50;;;;;;4977193;28;20113;-82
2022/11/01 11:40:41;;;;;;;11.98;1.98;;;17.30;71.30;;;;;;4974254;28;20018;-81
2022/11/01 11:43:34;;;;;;;8.23;1.33;;;17.50;70.70;;;;;;4968219;28;20029;-82
2022/11/01 11:46:09;;;;;;;8.55;2.00;;;17.40;70.60;;;;;;4960202;28;20026;-82
2022/11/01 11:49:06;;;;;;;9.32;1.50;;;17.40;70.60;;;;;;4988328;28;20497;-86
2022/11/01 11:51:36;;;;;;;7.43;1.33;;;17.20;71.10;;;;;;4975053;28;20521;-81
2022/11/01 11:54:30;;;;;;;9.30;2.17;;;17.10;73.80;;;;;;4971665;28;20035;-82
2022/11/01 11:57:18;;;;;;;7.70;1.95;;;17.00;75.60;;;;;;4958371;28;20146;-84
2022/11/01 11:59:48;;;;;;;12.55;3.33;;;16.90;76.00;;;;;;4985528;28;20019;-79
2022/11/01 12:02:28;;;;;;;12.75;2.67;;;16.80;75.80;;;;;;4992031;28;20508;-80
2022/11/01 12:05:14;;;;;;;13.18;2.15;;;16.70;76.20;;;;;;4966659;28;20035;-84
2022/11/01 12:07:53;;;;;;;7.13;1.85;;;16.80;76.70;;;;;;4961304;28;20058;-87
2022/11/01 12:10:32;;;;;;;8.55;2.08;;;16.70;76.70;;;;;;5004189;28;20031;-89
2022/11/01 12:13:21;;;;;;;5.75;1.33;;;16.80;76.90;;;;;;4981411;28;20113;-87
2022/11/01 12:16:06;;;;;;;5.43;1.73;;;16.80;77.00;;;;;;4980625;28;20189;-84
2022/11/01 12:18:32;;;;;;;5.53;2.40;;;16.80;76.60;;;;;;4997549;28;20022;-87
2022/11/01 12:20:58;;;;;;;8.40;1.73;;;16.80;76.80;;;;;;4980348;28;20058;-89
2022/11/01 12:23:33;;;;;;;7.55;2.20;;;16.90;76.10;;;;;;4979304;28;20033;-81
2022/11/01 12:26:01;;;;;;;12.13;2.03;;;17.10;75.80;;;;;;4976852;28;20033;-85
2022/11/01 12:28:57;;;;;;;6.28;1.48;;;17.30;75.40;;;;;;4980136;28;20469;-81
2022/11/01 12:31:23;;;;;;;6.70;1.50;;;17.30;75.00;;;;;;4975375;28;20102;-83
2022/11/01 12:34:19;;;;;;;8.88;2.30;;;17.30;74.90;;;;;;4971500;28;20080;-87
2022/11/01 12:36:51;;;;;;;12.80;2.35;;;17.30;74.20;;;;;;4988666;28;20051;-82
2022/11/01 12:39:48;;;;;;;14.68;1.90;;;17.30;74.70;;;;;;4990418;28;20035;-83
2022/11/01 12:42:21;;;;;;;9.90;1.75;;;17.30;74.50;;;;;;4987049;28;20038;-83
2022/11/01 12:44:55;;;;;;;13.10;2.13;;;17.30;74.60;;;;;;4975985;28;20392;-81
2022/11/01 12:47:28;;;;;;;7.65;1.25;;;17.30;74.30;;;;;;4970599;28;20038;-84
2022/11/01 12:49:57;;;;;;;12.18;2.25;;;17.40;74.20;;;;;;4965067;28;20489;-84
2022/11/01 12:52:41;;;;;;;10.80;1.73;;;17.50;73.50;;;;;;4978964;28;21297;-82
2022/11/01 12:55:34;;;;;;;9.27;1.92;;;17.50;74.00;;;;;;4963162;28;20027;-82
2022/11/01 12:58:00;;;;;;;13.85;3.08;;;17.50;74.00;;;;;;4952541;28;20030;-82
2022/11/01 13:00:37;;;;;;;7.28;1.90;;;17.50;73.90;;;;;;4972339;28;20050;-82
2022/11/01 13:03:34;;;;;;;9.10;1.23;;;17.50;74.00;;;;;;4984575;28;20031;-81
2022/11/01 13:06:52;;;;;;;9.40;1.70;;;17.50;73.50;;;;;;4948478;28;20417;-81
2022/11/01 13:09:30;;;;;;;12.73;2.05;;;17.50;73.90;;;;;;4879029;29;20043;-81
2022/11/01 13:12:10;;;;;;;9.80;2.25;;;17.60;74.10;;;;;;4876968;29;20102;-82
2022/11/01 13:15:00;;;;;;;10.05;2.17;;;17.70;74.10;;;;;;4937101;28;20053;-82
2022/11/01 13:17:41;;;;;;;9.05;1.60;;;17.70;73.90;;;;;;4985388;28;20018;-82
2022/11/01 13:20:44;;;;;;;11.73;1.95;;;17.60;73.70;;;;;;4988646;28;20113;-79
2022/11/01 13:23:21;;;;;;;8.52;1.67;;;17.50;73.60;;;;;;4980920;28;20378;-82
2022/11/01 13:25:50;;;;;;;7.78;1.52;;;17.40;73.90;;;;;;4985476;28;20031;-83
2022/11/01 13:28:46;;;;;;;14.05;2.10;;;17.50;73.80;;;;;;4975450;28;20497;-81
2022/11/01 13:31:33;;;;;;;10.32;1.70;;;17.50;73.60;;;;;;4966284;28;20058;-84
2022/11/01 13:34:14;;;;;;;7.38;1.67;;;17.30;74.20;;;;;;4986953;28;20043;-81
2022/11/01 13:37:09;;;;;;;6.85;1.67;;;17.30;74.10;;;;;;4986275;28;20500;-82
2022/11/01 13:39:49;;;;;;;15.20;2.40;;;17.20;74.90;;;;;;4988913;28;20037;-78
2022/11/01 13:42:32;;;;;;;15.68;2.55;;;17.10;77.30;;;;;;4985933;28;20588;-83
2022/11/01 13:45:29;;;;;;;6.00;1.77;;;16.80;79.00;;;;;;4987995;28;20035;-78
2022/11/01 13:48:02;;;;;;;11.02;2.00;;;16.80;79.70;;;;;;4976459;28;20041;-79
2022/11/01 13:51:14;;;;;;;13.57;1.90;;;16.80;80.40;;;;;;4985677;28;20061;-79
2022/11/01 13:53:47;;;;;;;11.98;1.92;;;16.70;80.80;;;;;;4985667;28;20031;-79
2022/11/01 13:56:28;;;;;;;8.65;2.70;;;16.80;80.60;;;;;;4993176;28;20053;-79
2022/11/01 13:58:54;;;;;;;8.75;1.85;;;16.80;80.90;;;;;;4990456;28;20857;-79
2022/11/01 14:01:30;;;;;;;11.35;1.90;;;16.70;80.90;;;;;;4989806;28;20034;-79
2022/11/01 14:04:13;;;;;;;11.30;1.73;;;16.80;80.90;;;;;;4997482;28;20497;-79
2022/11/01 14:06:41;;;;;;;10.02;1.98;;;16.80;80.80;;;;;;4994574;28;20035;-78
2022/11/01 14:09:26;;;;;;;16.23;2.85;;;16.80;80.90;;;;;;4960466;28;20019;-79
2022/11/01 14:12:06;;;;;;;9.77;1.75;;;16.70;80.90;;;;;;4990851;28;20053;-79
2022/11/01 14:14:31;;;;;;;4.03;1.52;;;16.70;80.80;;;;;;4989769;28;20046;-79
2022/11/01 14:17:17;;;;;;;10.07;1.73;;;16.60;81.00;;;;;;4989871;28;20027;-79
2022/11/01 14:19:48;;;;;;;9.80;1.95;;;16.50;80.80;;;;;;4947712;28;20080;-79
2022/11/01 14:22:23;;;;;;;14.02;2.58;;;16.60;81.30;;;;;;4997647;28;20180;-78
2022/11/01 14:24:55;;;;;;;11.75;2.78;;;16.60;81.60;;;;;;4998618;28;20127;-79
2022/11/01 14:27:35;;;;;;;11.07;2.53;;;16.60;81.50;;;;;;4991819;28;20034;-79
2022/11/01 14:30:20;;;;;;;10.55;2.17;;;16.60;81.80;;;;;;4989717;28;20075;-79
2022/11/01 14:33:00;;;;;;;7.75;2.10;;;16.50;81.70;;;;;;4971096;28;20034;-79
2022/11/01 14:35:34;;;;;;;10.48;1.85;;;16.50;81.70;;;;;;4955503;28;20023;-79
2022/11/01 14:38:12;;;;;;;14.60;2.95;;;16.40;81.90;;;;;;4958085;28;20027;-81
2022/11/01 14:40:40;;;;;;;13.65;3.03;;;16.50;81.70;;;;;;4972143;28;20018;-78
2022/11/01 14:43:16;;;;;;;9.90;2.25;;;16.50;81.80;;;;;;4967193;28;20054;-78
2022/11/01 14:45:45;;;;;;;6.95;2.22;;;16.50;81.90;;;;;;4951406;28;20027;-79
2022/11/01 14:48:17;;;;;;;10.47;2.50;;;16.50;81.60;;;;;;4951696;28;20058;-78
2022/11/01 14:51:08;;;;;;;12.02;2.22;;;16.50;81.80;;;;;;4968937;28;20261;-78
2022/11/01 14:53:36;;;;;;;8.23;2.13;;;16.40;81.70;;;;;;4969897;28;20095;-78
2022/11/01 14:56:21;;;;;;;11.10;1.52;;;16.50;81.70;;;;;;4970741;28;20019;-79
2022/11/01 14:58:47;;;;;;;6.88;2.42;;;16.60;80.80;;;;;;4969163;28;20041;-79
2022/11/01 15:01:12;;;;;;;9.13;2.08;;;16.50;80.20;;;;;;4955456;28;20026;-79
2022/11/01 15:03:38;;;;;;;10.27;2.22;;;16.60;80.30;;;;;;4967990;28;20093;-78
2022/11/01 15:06:20;;;;;;;11.52;1.92;;;16.50;79.70;;;;;;4950447;28;20027;-79
2022/11/01 15:08:46;;;;;;;13.18;1.88;;;16.50;80.00;;;;;;4969302;28;20030;-79
2022/11/01 15:11:12;;;;;;;10.43;1.60;;;16.40;79.70;;;;;;4972124;28;20083;-78
2022/11/01 15:13:42;;;;;;;10.10;2.10;;;16.40;79.60;;;;;;4967767;28;20854;-78
2022/11/01 15:16:13;;;;;;;;;;;16.40;79.90;;;;;;4970852;28;20445;-79
2022/11/01 15:18:46;;;;;;;5.70;1.33;;;16.40;79.90;;;;;;4969370;28;19949;-78
2022/11/01 15:21:19;;;;;;;9.98;2.22;;;16.40;79.70;;;;;;4954428;28;20485;-78
2022/11/01 15:23:47;;;;;;;7.03;1.42;;;16.40;79.60;;;;;;4953607;28;20026;-78
2022/11/01 15:26:16;;;;;;;9.18;1.92;;;16.40;79.70;;;;;;4966633;28;20053;-78
2022/11/01 15:28:50;;;;;;;10.20;2.00;;;16.50;79.90;;;;;;4969567;28;20023;-78
2022/11/01 15:31:16;;;;;;;6.43;1.75;;;16.50;80.10;;;;;;4974705;28;20054;-79
2022/11/01 15:33:57;;;;;;;13.35;2.67;;;16.50;80.10;;;;;;4984819;28;20162;-79
2022/11/01 15:36:32;;;;;;;13.30;2.08;;;16.60;80.20;;;;;;4984759;28;20101;-79
2022/11/01 15:39:00;;;;;;;8.48;1.92;;;16.60;79.80;;;;;;4987321;28;20409;-79
2022/11/01 15:41:33;;;;;;;6.07;1.75;;;16.60;79.70;;;;;;4950431;28;20142;-78
2022/11/01 15:44:01;;;;;;;10.75;1.98;;;16.60;79.50;;;;;;4967177;28;20031;-78
2022/11/01 15:46:41;;;;;;;9.05;2.47;;;16.50;79.50;;;;;;4940996;28;20133;-79
2022/11/01 15:49:25;;;;;;;10.50;1.88;;;16.40;79.60;;;;;;4959017;28;20035;-79
2022/11/01 15:51:57;;;;;;;9.43;1.65;;;16.30;79.70;;;;;;4967940;28;20042;-78
2022/11/01 15:54:41;;;;;;;12.57;2.83;;;16.30;79.90;;;;;;4974635;28;20035;-79
2022/11/01 15:57:21;;;;;;;4.30;1.60;;;16.30;80.10;;;;;;4976102;28;20081;-79
2022/11/01 16:00:16;;;;;;;11.55;2.95;;;16.20;80.10;;;;;;4976363;28;20031;-79
2022/11/01 16:03:07;;;;;;;13.07;2.22;;;16.20;80.30;;;;;;4973908;28;20043;-79
2022/11/01 16:05:47;;;;;;;11.55;2.42;;;16.10;80.20;;;;;;4958415;29;20035;-79
2022/11/01 16:08:36;;;;;;;9.18;2.20;;;16.10;80.10;;;;;;4954616;28;20033;-79
2022/11/01 16:11:02;;;;;;;11.30;3.08;;;16.00;80.00;;;;;;4969913;28;20500;-79
2022/11/01 16:13:29;;;;;;;10.57;2.50;;;16.10;80.20;;;;;;4977494;28;20089;-79
2022/11/01 16:16:09;;;;;;;12.05;3.22;;;16.00;80.20;;;;;;4977569;28;20023;-79
2022/11/01 16:18:40;;;;;;;14.37;4.80;;;16.00;80.30;;;;;;4976499;28;20090;-78
2022/11/01 16:21:25;;;;;;;10.40;2.58;;;15.90;80.50;;;;;;4967312;28;20425;-78
2022/11/01 16:24:14;;;;;;;13.50;4.05;;;15.90;80.60;;;;;;4968496;28;20034;-79
2022/11/01 16:27:02;;;;;;;8.77;2.50;;;15.90;80.70;;;;;;4952271;28;20050;-78
2022/11/01 16:29:51;;;;;;;18.10;5.47;;;15.90;80.80;;;;;;4966644;28;20549;-79
2022/11/01 16:32:22;;;;;;;10.13;3.10;;;15.80;80.90;;;;;;4967803;28;20042;-78
2022/11/01 16:34:49;;;;;;;15.98;5.15;;;15.80;81.00;;;;;;4988769;28;20062;-78
2022/11/01 16:37:19;;;;;;;11.15;2.88;;;15.80;81.00;;;;;;4967843;28;20061;-78
2022/11/01 16:39:46;;;;;;;;;;;15.80;81.00;;;;;;4969291;28;20034;-79
2022/11/01 16:42:11;;;;;;;9.50;2.63;;;15.80;81.10;;;;;;4986765;28;20301;-78
2022/11/01 16:44:39;;;;;;;10.45;2.65;;;15.80;81.10;;;;;;4971406;28;20030;-78
2022/11/01 16:47:05;;;;;;;11.40;2.83;;;15.80;81.10;;;;;;4985141;28;20110;-78
2022/11/01 16:49:30;;;;;;;9.63;3.15;;;15.80;81.20;;;;;;4968375;28;20094;-79
2022/11/01 16:51:56;;;;;;;10.50;3.55;;;15.70;81.30;;;;;;4987056;28;20568;-79
2022/11/01 16:54:23;;;;;;;10.65;2.67;;;15.70;81.40;;;;;;4986640;28;20023;-79
2022/11/01 16:56:55;;;;;;;9.25;2.22;;;15.70;81.60;;;;;;4987645;28;20022;-78
2022/11/01 16:59:37;;;;;;;9.48;2.55;;;15.70;81.80;;;;;;4989468;28;20568;-79
2022/11/01 17:02:27;;;;;;;11.07;2.03;;;15.70;81.80;;;;;;4986066;28;20053;-79
2022/11/01 17:05:19;;;;;;;10.07;2.53;;;15.70;81.80;;;;;;4987750;28;20026;-78
2022/11/01 17:07:46;;;;;;;8.73;2.50;;;15.70;81.80;;;;;;4988762;28;20034;-79
2022/11/01 17:10:29;;;;;;;20.55;8.60;;;15.70;81.70;;;;;;4987271;28;20137;-79
2022/11/01 17:13:02;;;;;;;10.80;4.78;;;15.70;81.80;;;;;;4969178;28;20037;-79
2022/11/01 17:15:31;;;;;;;6.82;3.17;;;15.70;81.70;;;;;;4970525;28;20022;-78
2022/11/01 17:18:04;;;;;;;24.17;13.52;;;15.70;81.60;;;;;;4987965;28;20029;-78
2022/11/01 17:20:30;;;;;;;12.52;3.10;;;15.70;81.80;;;;;;4970111;28;20042;-78
2022/11/01 17:22:56;;;;;;;15.43;5.63;;;15.60;81.70;;;;;;4972159;28;20436;-79
2022/11/01 17:25:28;;;;;;;9.50;2.83;;;15.60;81.70;;;;;;4969749;28;20022;-78
2022/11/01 17:27:56;;;;;;;13.38;2.63;;;15.50;81.70;;;;;;4984748;28;20026;-78
2022/11/01 17:30:22;;;;;;;11.93;2.17;;;15.50;81.70;;;;;;4986385;28;20113;-78
2022/11/01 17:32:48;;;;;;;10.50;3.13;;;15.50;81.60;;;;;;4992004;28;20113;-79
2022/11/01 17:35:14;;;;;;;10.57;2.30;;;15.50;81.70;;;;;;4954446;28;20019;-81
2022/11/01 17:37:40;;;;;;;8.60;2.88;;;15.50;81.60;;;;;;4987004;28;20015;-78
2022/11/01 17:40:21;;;;;;;8.48;2.63;;;15.40;81.50;;;;;;4987229;28;20030;-78
2022/11/01 17:42:46;;;;;;;10.93;2.25;;;15.30;81.70;;;;;;4985603;28;20034;-78
2022/11/01 17:45:12;;;;;;;7.82;2.40;;;15.30;81.80;;;;;;4969490;28;20057;-81
2022/11/01 17:47:39;;;;;;;13.52;2.55;;;15.30;81.80;;;;;;4976707;28;20054;-80
2022/11/01 17:50:29;;;;;;;8.90;2.33;;;15.30;81.70;;;;;;4983474;28;20033;-76
2022/11/01 17:52:55;;;;;;;11.73;2.65;;;15.30;81.80;;;;;;4965190;28;20035;-80
2022/11/01 17:55:21;;;;;;;10.82;2.42;;;15.30;81.70;;;;;;4989226;28;20030;-80
2022/11/01 17:57:47;;;;;;;12.18;2.72;;;15.30;81.70;;;;;;4987636;28;20034;-80
2022/11/01 18:00:13;;;;;;;10.18;3.40;;;15.30;81.80;;;;;;4971178;28;20493;-78
2022/11/01 18:02:39;;;;;;;15.35;3.00;;;15.30;81.80;;;;;;4968979;28;20030;-84
2022/11/01 18:05:07;;;;;;;10.10;2.00;;;15.30;82.00;;;;;;4966293;28;20089;-82
2022/11/01 18:07:39;;;;;;;8.98;2.10;;;15.30;81.90;;;;;;4990611;28;20030;-78
2022/11/01 18:10:15;;;;;;;12.13;2.70;;;15.30;82.10;;;;;;4987205;28;20030;-78
2022/11/01 18:15:53;;;;;;;11.57;2.10;;;15.40;81.90;;;;;;4978627;28;20031;-80
2022/11/01 18:18:51;;;;;;;9.48;2.90;;;15.40;82.00;;;;;;4968035;28;20038;-80
2022/11/01 18:21:51;;;;;;;18.05;4.28;;;15.40;82.50;;;;;;4970775;28;20034;-84
2022/11/01 18:24:42;;;;;;;12.77;3.07;;;15.50;83.00;;;;;;4983625;28;20576;-81
2022/11/01 18:27:12;;;;;;;5.47;1.67;;;15.30;81.80;;;;;;4988834;28;20281;-80
2022/11/01 18:29:40;;;;;;;6.35;2.17;;;15.10;79.50;;;;;;4993528;28;20041;-79
2022/11/01 18:32:24;;;;;;;6.13;2.03;;;15.00;78.60;;;;;;4959936;28;20050;-78
2022/11/01 18:34:58;;;;;;;10.10;2.60;;;14.90;79.40;;;;;;4991673;28;20026;-79
2022/11/01 18:37:54;;;;;;;9.45;2.33;;;14.90;78.40;;;;;;4985449;28;20114;-77
2022/11/01 18:40:29;;;;;;;7.63;2.70;;;14.80;78.20;;;;;;4993087;28;20030;-82
2022/11/01 18:42:55;;;;;;;13.85;5.32;;;14.70;77.20;;;;;;4989153;28;20465;-83
2022/11/01 18:45:23;;;;;;;10.85;3.47;;;14.70;78.30;;;;;;4992998;28;20050;-79
2022/11/01 18:48:05;;;;;;;7.25;3.83;;;14.50;77.80;;;;;;4999044;28;20038;-79